sensor_id;sensor_type;location;lat;lon;timestamp;pressure;altitude;pressure_sealevel;temperature;humidity
69780;BME280;57052;55.602;38.096;2023-05-25T00:01:08;100305.59;;;18.17;69.34
69780;BME280;57052;55.602;38.096;2023-05-25T00:03:34;100305.94;;;18.16;69.33
69780;BME280;57052;55.602;38.096;2023-05-25T00:06:00;100298.00;;;18.14;69.71
69780;BME280;57052;55.602;38.096;2023-05-25T00:08:27;100294.78;;;18.12;69.71
69780;BME280;57052;55.602;38.096;2023-05-25T00:10:52;100288.63;;;18.07;69.68
69780;BME280;57052;55.602;38.096;2023-05-25T00:13:18;100270.91;;;17.96;69.50
69780;BME280;57052;55.602;38.096;2023-05-25T00:15:44;100278.97;;;18.01;69.56
69780;BME280;57052;55.602;38.096;2023-05-25T00:18:09;100279.44;;;18.03;69.77
69780;BME280;57052;55.602;38.096;2023-05-25T00:20:35;100282.19;;;18.03;69.62
69780;BME280;57052;55.602;38.096;2023-05-25T00:23:01;100272.50;;;17.97;69.63
69780;BME280;57052;55.602;38.096;2023-05-25T00:25:27;100280.91;;;18.00;69.67
69780;BME280;57052;55.602;38.096;2023-05-25T00:27:53;100272.97;;;17.90;69.98
69780;BME280;57052;55.602;38.096;2023-05-25T00:30:19;100282.97;;;17.94;70.00
69780;BME280;57052;55.602;38.096;2023-05-25T00:32:45;100274.75;;;17.94;69.87
69780;BME280;57052;55.602;38.096;2023-05-25T00:35:12;100273.16;;;17.93;69.83
69780;BME280;57052;55.602;38.096;2023-05-25T00:37:37;100267.16;;;17.91;70.08
69780;BME280;57052;55.602;38.096;2023-05-25T00:40:03;100263.63;;;17.91;69.88
69780;BME280;57052;55.602;38.096;2023-05-25T00:42:32;100265.88;;;17.89;70.25
69780;BME280;57052;55.602;38.096;2023-05-25T00:44:58;100261.19;;;17.89;70.16
69780;BME280;57052;55.602;38.096;2023-05-25T00:47:23;100270.56;;;17.88;70.49
69780;BME280;57052;55.602;38.096;2023-05-25T00:49:49;100282.81;;;17.91;70.54
69780;BME280;57052;55.602;38.096;2023-05-25T00:52:15;100280.06;;;17.91;70.49
69780;BME280;57052;55.602;38.096;2023-05-25T00:54:42;100267.44;;;17.81;70.50
69780;BME280;57052;55.602;38.096;2023-05-25T00:57:12;100281.50;;;17.88;70.55
69780;BME280;57052;55.602;38.096;2023-05-25T00:59:43;100285.34;;;17.87;70.83
69780;BME280;57052;55.602;38.096;2023-05-25T01:02:11;100279.69;;;17.84;70.34
69780;BME280;57052;55.602;38.096;2023-05-25T01:04:42;100280.50;;;17.84;70.53
69780;BME280;57052;55.602;38.096;2023-05-25T01:07:10;100280.84;;;17.83;70.71
69780;BME280;57052;55.602;38.096;2023-05-25T01:09:45;100276.13;;;17.75;71.23
69780;BME280;57052;55.602;38.096;2023-05-25T01:12:17;100282.09;;;17.77;71.01
69780;BME280;57052;55.602;38.096;2023-05-25T01:14:44;100290.31;;;17.77;70.46
69780;BME280;57052;55.602;38.096;2023-05-25T01:17:13;100271.59;;;17.70;70.82
69780;BME280;57052;55.602;38.096;2023-05-25T01:19:40;100272.72;;;17.69;70.78
69780;BME280;57052;55.602;38.096;2023-05-25T01:22:44;100277.97;;;17.57;72.11
69780;BME280;57052;55.602;38.096;2023-05-25T01:25:17;100276.22;;;17.61;70.91
69780;BME280;57052;55.602;38.096;2023-05-25T01:27:55;100271.88;;;17.60;71.18
69780;BME280;57052;55.602;38.096;2023-05-25T01:30:24;100290.72;;;17.62;70.96
69780;BME280;57052;55.602;38.096;2023-05-25T01:32:52;100270.25;;;17.59;71.09
69780;BME280;57052;55.602;38.096;2023-05-25T01:35:18;100276.22;;;17.61;70.93
69780;BME280;57052;55.602;38.096;2023-05-25T01:37:45;100283.31;;;17.62;70.84
69780;BME280;57052;55.602;38.096;2023-05-25T01:40:14;100295.38;;;17.61;71.04
69780;BME280;57052;55.602;38.096;2023-05-25T01:42:40;100273.84;;;17.46;70.84
69780;BME280;57052;55.602;38.096;2023-05-25T01:45:08;100286.81;;;17.54;71.02
69780;BME280;57052;55.602;38.096;2023-05-25T01:50:39;100292.88;;;17.51;71.82
69780;BME280;57052;55.602;38.096;2023-05-25T01:53:09;100288.72;;;17.54;71.38
69780;BME280;57052;55.602;38.096;2023-05-25T01:55:53;100287.25;;;17.48;71.83
69780;BME280;57052;55.602;38.096;2023-05-25T01:58:20;100288.94;;;17.35;72.89
69780;BME280;57052;55.602;38.096;2023-05-25T02:00:48;100287.25;;;17.48;71.14
69780;BME280;57052;55.602;38.096;2023-05-25T02:03:15;100281.16;;;17.51;71.14
69780;BME280;57052;55.602;38.096;2023-05-25T02:05:42;100265.97;;;17.45;71.41
69780;BME280;57052;55.602;38.096;2023-05-25T02:08:08;100274.53;;;17.52;71.26
69780;BME280;57052;55.602;38.096;2023-05-25T02:10:33;100266.78;;;17.45;71.36
69780;BME280;57052;55.602;38.096;2023-05-25T02:12:59;100278.13;;;17.52;71.34
69780;BME280;57052;55.602;38.096;2023-05-25T02:15:30;100288.22;;;17.52;71.54
69780;BME280;57052;55.602;38.096;2023-05-25T02:17:57;100280.53;;;17.54;71.55
69780;BME280;57052;55.602;38.096;2023-05-25T02:20:44;100292.28;;;17.54;71.67
69780;BME280;57052;55.602;38.096;2023-05-25T02:23:11;100281.81;;;17.56;71.74
69780;BME280;57052;55.602;38.096;2023-05-25T02:25:37;100288.31;;;17.60;71.68
69780;BME280;57052;55.602;38.096;2023-05-25T02:28:03;100286.88;;;17.63;71.55
69780;BME280;57052;55.602;38.096;2023-05-25T02:30:29;100287.53;;;17.68;71.75
69780;BME280;57052;55.602;38.096;2023-05-25T02:32:55;100264.63;;;17.56;71.91
69780;BME280;57052;55.602;38.096;2023-05-25T02:35:21;100290.31;;;17.77;71.63
69780;BME280;57052;55.602;38.096;2023-05-25T02:37:47;100288.56;;;17.81;72.00
69780;BME280;57052;55.602;38.096;2023-05-25T02:40:13;100277.63;;;17.81;71.71
69780;BME280;57052;55.602;38.096;2023-05-25T02:42:39;100284.06;;;17.85;71.79
69780;BME280;57052;55.602;38.096;2023-05-25T02:45:07;100291.50;;;17.93;71.79
69780;BME280;57052;55.602;38.096;2023-05-25T02:47:34;100296.03;;;17.98;71.82
69780;BME280;57052;55.602;38.096;2023-05-25T02:50:01;100295.22;;;17.97;71.67
69780;BME280;57052;55.602;38.096;2023-05-25T02:52:30;100301.84;;;18.05;71.29
69780;BME280;57052;55.602;38.096;2023-05-25T02:54:59;100302.81;;;18.09;71.71
69780;BME280;57052;55.602;38.096;2023-05-25T02:57:25;100302.19;;;18.12;71.32
69780;BME280;57052;55.602;38.096;2023-05-25T02:59:51;100304.63;;;18.13;71.47
69780;BME280;57052;55.602;38.096;2023-05-25T03:02:17;100302.53;;;18.19;71.25
69780;BME280;57052;55.602;38.096;2023-05-25T03:04:43;100297.53;;;18.12;71.26
69780;BME280;57052;55.602;38.096;2023-05-25T03:07:11;100303.19;;;18.24;71.34
69780;BME280;57052;55.602;38.096;2023-05-25T03:09:37;100308.53;;;18.29;71.35
69780;BME280;57052;55.602;38.096;2023-05-25T03:12:03;100294.97;;;18.24;71.22
69780;BME280;57052;55.602;38.096;2023-05-25T03:14:28;100309.69;;;18.37;71.15
69780;BME280;57052;55.602;38.096;2023-05-25T03:16:54;100301.94;;;18.39;71.37
69780;BME280;57052;55.602;38.096;2023-05-25T03:19:20;100310.00;;;18.44;71.36
69780;BME280;57052;55.602;38.096;2023-05-25T03:21:46;100307.78;;;18.46;71.21
69780;BME280;57052;55.602;38.096;2023-05-25T03:24:12;100310.06;;;18.52;71.20
69780;BME280;57052;55.602;38.096;2023-05-25T03:26:38;100317.81;;;18.59;70.82
69780;BME280;57052;55.602;38.096;2023-05-25T03:29:03;100314.13;;;18.64;71.21
69780;BME280;57052;55.602;38.096;2023-05-25T03:31:31;100313.97;;;18.69;71.20
69780;BME280;57052;55.602;38.096;2023-05-25T03:33:57;100305.75;;;18.69;71.13
69780;BME280;57052;55.602;38.096;2023-05-25T03:36:23;100306.88;;;18.76;71.24
69780;BME280;57052;55.602;38.096;2023-05-25T03:38:52;100307.03;;;18.80;71.24
69780;BME280;57052;55.602;38.096;2023-05-25T03:41:18;100297.34;;;18.82;71.12
69780;BME280;57052;55.602;38.096;2023-05-25T03:43:44;100303.00;;;18.94;71.20
69780;BME280;57052;55.602;38.096;2023-05-25T03:46:10;100308.31;;;18.99;71.10
69780;BME280;57052;55.602;38.096;2023-05-25T03:48:36;100305.41;;;19.04;71.29
69780;BME280;57052;55.602;38.096;2023-05-25T03:51:02;100299.94;;;19.04;71.21
69780;BME280;57052;55.602;38.096;2023-05-25T03:53:28;100292.69;;;19.08;71.40
69780;BME280;57052;55.602;38.096;2023-05-25T03:55:54;100300.06;;;19.16;71.26
69780;BME280;57052;55.602;38.096;2023-05-25T03:58:20;100304.91;;;19.19;71.22
69780;BME280;57052;55.602;38.096;2023-05-25T04:00:46;100291.19;;;19.19;71.08
69780;BME280;57052;55.602;38.096;2023-05-25T04:03:14;100291.84;;;19.25;71.13
69780;BME280;57052;55.602;38.096;2023-05-25T04:05:39;100297.50;;;19.29;71.01
69780;BME280;57052;55.602;38.096;2023-05-25T04:08:06;100294.59;;;19.34;70.99
69780;BME280;57052;55.602;38.096;2023-05-25T04:10:33;100293.94;;;19.37;71.13
69780;BME280;57052;55.602;38.096;2023-05-25T04:12:59;100278.41;;;19.32;71.12
69780;BME280;57052;55.602;38.096;2023-05-25T04:15:24;100292.97;;;19.41;71.05
69780;BME280;57052;55.602;38.096;2023-05-25T04:17:50;100280.19;;;19.45;71.00
69780;BME280;57052;55.602;38.096;2023-05-25T04:20:16;100287.63;;;19.53;70.69
69780;BME280;57052;55.602;38.096;2023-05-25T04:22:42;100287.75;;;19.57;70.89
69780;BME280;57052;55.602;38.096;2023-05-25T04:25:09;100281.47;;;19.56;70.88
69780;BME280;57052;55.602;38.096;2023-05-25T04:27:35;100281.91;;;19.67;70.73
69780;BME280;57052;55.602;38.096;2023-05-25T04:30:02;100283.34;;;19.73;70.52
69780;BME280;57052;55.602;38.096;2023-05-25T04:32:30;100277.69;;;19.78;70.38
69780;BME280;57052;55.602;38.096;2023-05-25T04:34:56;100292.34;;;19.82;70.39
69780;BME280;57052;55.602;38.096;2023-05-25T04:37:23;100279.59;;;19.86;70.39
69780;BME280;57052;55.602;38.096;2023-05-25T04:39:52;100285.50;;;19.97;70.15
69780;BME280;57052;55.602;38.096;2023-05-25T04:42:18;100278.53;;;19.99;70.17
69780;BME280;57052;55.602;38.096;2023-05-25T04:44:49;100287.38;;;20.13;69.70
69780;BME280;57052;55.602;38.096;2023-05-25T04:47:18;100256.88;;;20.06;69.63
69780;BME280;57052;55.602;38.096;2023-05-25T04:49:43;100279.72;;;20.27;69.31
69780;BME280;57052;55.602;38.096;2023-05-25T04:52:09;100263.56;;;20.26;69.08
69780;BME280;57052;55.602;38.096;2023-05-25T04:54:35;100286.56;;;20.42;68.68
69780;BME280;57052;55.602;38.096;2023-05-25T04:57:01;100279.41;;;20.50;68.62
69780;BME280;57052;55.602;38.096;2023-05-25T04:59:27;100282.44;;;20.57;68.12
69780;BME280;57052;55.602;38.096;2023-05-25T05:01:53;100276.75;;;20.62;68.27
69780;BME280;57052;55.602;38.096;2023-05-25T05:04:18;100278.03;;;20.64;67.86
69780;BME280;57052;55.602;38.096;2023-05-25T05:06:44;100271.03;;;20.67;67.89
69780;BME280;57052;55.602;38.096;2023-05-25T05:09:10;100276.94;;;20.77;67.90
69780;BME280;57052;55.602;38.096;2023-05-25T05:11:36;100284.88;;;20.79;67.68
69780;BME280;57052;55.602;38.096;2023-05-25T05:14:01;100285.44;;;20.84;67.74
69780;BME280;57052;55.602;38.096;2023-05-25T05:16:27;100289.47;;;20.87;67.62
69780;BME280;57052;55.602;38.096;2023-05-25T05:18:58;100283.66;;;20.88;67.82
69780;BME280;57052;55.602;38.096;2023-05-25T05:21:23;100283.31;;;20.90;67.60
69780;BME280;57052;55.602;38.096;2023-05-25T05:23:49;100282.50;;;20.89;67.58
69780;BME280;57052;55.602;38.096;2023-05-25T05:26:15;100291.56;;;20.90;67.62
69780;BME280;57052;55.602;38.096;2023-05-25T05:28:41;100297.06;;;20.90;67.57
69780;BME280;57052;55.602;38.096;2023-05-25T05:31:07;100290.75;;;20.89;67.56
69780;BME280;57052;55.602;38.096;2023-05-25T05:33:32;100289.97;;;20.89;67.55
69780;BME280;57052;55.602;38.096;2023-05-25T05:35:58;100288.34;;;20.88;67.80
69780;BME280;57052;55.602;38.096;2023-05-25T05:38:25;100292.56;;;20.85;67.84
69780;BME280;57052;55.602;38.096;2023-05-25T05:40:51;100291.16;;;20.79;67.96
69780;BME280;57052;55.602;38.096;2023-05-25T05:43:17;100278.75;;;20.73;67.98
69780;BME280;57052;55.602;38.096;2023-05-25T05:45:42;100295.88;;;20.79;67.78
69780;BME280;57052;55.602;38.096;2023-05-25T05:48:08;100302.50;;;20.78;67.96
69780;BME280;57052;55.602;38.096;2023-05-25T05:50:37;100307.06;;;20.74;68.40
69780;BME280;57052;55.602;38.096;2023-05-25T05:53:04;100314.53;;;20.73;68.32
69780;BME280;57052;55.602;38.096;2023-05-25T05:55:30;100325.72;;;20.68;68.32
69780;BME280;57052;55.602;38.096;2023-05-25T05:57:56;100336.38;;;20.70;68.65
69780;BME280;57052;55.602;38.096;2023-05-25T06:00:22;100319.47;;;20.59;68.96
69780;BME280;57052;55.602;38.096;2023-05-25T06:02:49;100334.50;;;20.62;69.44
69780;BME280;57052;55.602;38.096;2023-05-25T06:05:15;100324.22;;;20.50;69.61
69780;BME280;57052;55.602;38.096;2023-05-25T06:07:44;100324.56;;;20.49;70.27
69780;BME280;57052;55.602;38.096;2023-05-25T06:10:10;100335.56;;;20.49;69.98
69780;BME280;57052;55.602;38.096;2023-05-25T06:12:35;100329.09;;;20.44;70.61
69780;BME280;57052;55.602;38.096;2023-05-25T06:15:01;100330.44;;;20.38;70.66
69780;BME280;57052;55.602;38.096;2023-05-25T06:17:31;100325.44;;;20.32;71.02
69780;BME280;57052;55.602;38.096;2023-05-25T06:19:57;100316.59;;;20.26;71.32
69780;BME280;57052;55.602;38.096;2023-05-25T06:22:23;100310.09;;;20.22;71.48
69780;BME280;57052;55.602;38.096;2023-05-25T06:24:52;100320.13;;;20.27;71.86
69780;BME280;57052;55.602;38.096;2023-05-25T06:27:18;100321.94;;;20.23;71.88
69780;BME280;57052;55.602;38.096;2023-05-25T06:29:44;100313.69;;;20.14;72.09
69780;BME280;57052;55.602;38.096;2023-05-25T06:32:09;100280.19;;;19.92;72.40
69780;BME280;57052;55.602;38.096;2023-05-25T06:34:35;100317.13;;;20.11;72.62
69780;BME280;57052;55.602;38.096;2023-05-25T06:37:01;100305.53;;;20.06;72.88
69780;BME280;57052;55.602;38.096;2023-05-25T06:39:27;100311.00;;;20.06;73.02
69780;BME280;57052;55.602;38.096;2023-05-25T06:41:53;100306.50;;;20.01;73.29
69780;BME280;57052;55.602;38.096;2023-05-25T06:44:18;100296.84;;;19.95;73.46
69780;BME280;57052;55.602;38.096;2023-05-25T06:46:44;100312.66;;;19.98;73.49
69780;BME280;57052;55.602;38.096;2023-05-25T06:49:10;100309.44;;;19.96;73.68
69780;BME280;57052;55.602;38.096;2023-05-25T06:51:36;100306.69;;;19.96;73.89
69780;BME280;57052;55.602;38.096;2023-05-25T06:54:02;100308.94;;;19.94;73.80
69780;BME280;57052;55.602;38.096;2023-05-25T06:56:27;100296.53;;;19.88;73.81
69780;BME280;57052;55.602;38.096;2023-05-25T06:58:53;100300.38;;;19.96;73.90
69780;BME280;57052;55.602;38.096;2023-05-25T07:01:19;100299.56;;;19.95;73.97
69780;BME280;57052;55.602;38.096;2023-05-25T07:03:45;100307.81;;;19.95;74.04
69780;BME280;57052;55.602;38.096;2023-05-25T07:06:11;100296.00;;;19.95;74.18
69780;BME280;57052;55.602;38.096;2023-05-25T07:08:37;100301.38;;;19.91;74.37
69780;BME280;57052;55.602;38.096;2023-05-25T07:11:03;100284.28;;;19.77;74.46
69780;BME280;57052;55.602;38.096;2023-05-25T07:13:29;100306.72;;;19.88;74.53
69780;BME280;57052;55.602;38.096;2023-05-25T07:15:55;100302.69;;;19.85;75.04
69780;BME280;57052;55.602;38.096;2023-05-25T07:18:20;100297.53;;;19.83;74.86
69780;BME280;57052;55.602;38.096;2023-05-25T07:20:46;100287.84;;;19.77;75.13
69780;BME280;57052;55.602;38.096;2023-05-25T07:23:12;100289.00;;;19.76;74.82
69780;BME280;57052;55.602;38.096;2023-05-25T07:25:39;100301.88;;;19.84;74.93
69780;BME280;57052;55.602;38.096;2023-05-25T07:28:05;100288.78;;;19.81;75.07
69780;BME280;57052;55.602;38.096;2023-05-25T07:30:30;100300.41;;;19.87;75.00
69780;BME280;57052;55.602;38.096;2023-05-25T07:32:56;100300.41;;;19.87;74.94
69780;BME280;57052;55.602;38.096;2023-05-25T07:35:25;100286.84;;;19.82;74.95
69780;BME280;57052;55.602;38.096;2023-05-25T07:37:58;100303.97;;;19.88;75.77
69780;BME280;57052;55.602;38.096;2023-05-25T07:40:25;100301.38;;;19.91;75.29
69780;BME280;57052;55.602;38.096;2023-05-25T07:42:51;100306.88;;;19.91;75.29
69780;BME280;57052;55.602;38.096;2023-05-25T07:45:17;100297.66;;;19.87;75.28
69780;BME280;57052;55.602;38.096;2023-05-25T07:47:43;100300.09;;;19.89;75.37
69780;BME280;57052;55.602;38.096;2023-05-25T07:50:09;100297.66;;;19.87;75.31
69780;BME280;57052;55.602;38.096;2023-05-25T07:52:35;100293.13;;;19.91;75.72
69780;BME280;57052;55.602;38.096;2023-05-25T07:55:03;100301.84;;;19.93;75.75
69780;BME280;57052;55.602;38.096;2023-05-25T07:57:29;100306.88;;;19.91;75.81
69780;BME280;57052;55.602;38.096;2023-05-25T07:59:55;100302.16;;;19.92;75.90
69780;BME280;57052;55.602;38.096;2023-05-25T08:02:21;100309.63;;;19.91;76.02
69780;BME280;57052;55.602;38.096;2023-05-25T08:04:46;100300.22;;;19.92;75.99
69780;BME280;57052;55.602;38.096;2023-05-25T08:07:12;100310.09;;;19.93;76.01
69780;BME280;57052;55.602;38.096;2023-05-25T08:09:38;100312.03;;;19.93;76.10
69780;BME280;57052;55.602;38.096;2023-05-25T08:12:03;100303.44;;;19.94;76.14
69780;BME280;57052;55.602;38.096;2023-05-25T08:14:29;100308.94;;;19.94;76.24
69780;BME280;57052;55.602;38.096;2023-05-25T08:16:55;100296.53;;;19.88;76.46
69780;BME280;57052;55.602;38.096;2023-05-25T08:19:21;100295.09;;;19.82;76.27
69780;BME280;57052;55.602;38.096;2023-05-25T08:21:46;100301.56;;;19.86;76.50
69780;BME280;57052;55.602;38.096;2023-05-25T08:24:12;100315.13;;;19.91;76.70
69780;BME280;57052;55.602;38.096;2023-05-25T08:26:38;100312.38;;;19.91;76.60
69780;BME280;57052;55.602;38.096;2023-05-25T08:29:05;100313.16;;;19.92;76.63
69780;BME280;57052;55.602;38.096;2023-05-25T08:31:31;100310.09;;;19.93;76.56
69780;BME280;57052;55.602;38.096;2023-05-25T08:34:00;100304.25;;;19.95;76.42
69780;BME280;57052;55.602;38.096;2023-05-25T08:36:26;100295.22;;;19.94;76.45
69780;BME280;57052;55.602;38.096;2023-05-25T08:38:52;100249.75;;;19.67;76.37
69780;BME280;57052;55.602;38.096;2023-05-25T08:41:19;100290.53;;;19.95;76.46
69780;BME280;57052;55.602;38.096;2023-05-25T08:43:45;100296.00;;;19.95;76.65
69780;BME280;57052;55.602;38.096;2023-05-25T08:46:12;100290.88;;;19.93;76.42
69780;BME280;57052;55.602;38.096;2023-05-25T08:48:38;100298.63;;;19.91;76.38
69780;BME280;57052;55.602;38.096;2023-05-25T08:51:06;100310.75;;;19.90;76.53
69780;BME280;57052;55.602;38.096;2023-05-25T08:53:39;100316.09;;;19.87;77.15
69780;BME280;57052;55.602;38.096;2023-05-25T08:56:20;100305.09;;;19.87;77.00
69780;BME280;57052;55.602;38.096;2023-05-25T08:59:17;100303.69;;;19.80;78.13
69780;BME280;57052;55.602;38.096;2023-05-25T09:01:56;100300.47;;;19.78;77.30
69780;BME280;57052;55.602;38.096;2023-05-25T09:04:24;100299.31;;;19.79;77.26
69780;BME280;57052;55.602;38.096;2023-05-25T09:06:50;100299.00;;;19.81;77.04
69780;BME280;57052;55.602;38.096;2023-05-25T09:09:16;100296.72;;;19.83;77.05
69780;BME280;57052;55.602;38.096;2023-05-25T09:11:43;100285.28;;;19.72;76.82
69780;BME280;57052;55.602;38.096;2023-05-25T09:14:10;100303.53;;;19.77;77.19
69780;BME280;57052;55.602;38.096;2023-05-25T09:16:36;100288.69;;;19.69;77.14
69780;BME280;57052;55.602;38.096;2023-05-25T09:19:03;100273.38;;;19.60;77.02
69780;BME280;57052;55.602;38.096;2023-05-25T09:21:28;100285.63;;;19.71;77.30
69780;BME280;57052;55.602;38.096;2023-05-25T09:23:54;100281.72;;;19.72;77.27
69780;BME280;57052;55.602;38.096;2023-05-25T09:26:20;100284.28;;;19.77;77.06
69780;BME280;57052;55.602;38.096;2023-05-25T09:28:46;100283.63;;;19.80;77.15
69780;BME280;57052;55.602;38.096;2023-05-25T09:31:14;100290.41;;;19.82;77.23
69780;BME280;57052;55.602;38.096;2023-05-25T09:33:39;100291.53;;;19.81;77.51
69780;BME280;57052;55.602;38.096;2023-05-25T09:36:06;100290.56;;;19.86;77.56
69780;BME280;57052;55.602;38.096;2023-05-25T09:38:32;100287.66;;;19.91;77.40
69780;BME280;57052;55.602;38.096;2023-05-25T09:40:58;100281.81;;;19.93;77.63
69780;BME280;57052;55.602;38.096;2023-05-25T09:43:24;100270.81;;;19.93;77.94
69780;BME280;57052;55.602;38.096;2023-05-25T09:45:53;100276.78;;;19.95;77.53
69780;BME280;57052;55.602;38.096;2023-05-25T09:48:20;100278.41;;;19.96;76.88
69780;BME280;57052;55.602;38.096;2023-05-25T09:50:46;100265.97;;;19.90;77.24
69780;BME280;57052;55.602;38.096;2023-05-25T09:53:12;100261.44;;;19.94;76.93
69780;BME280;57052;55.602;38.096;2023-05-25T09:55:38;100262.38;;;19.98;77.02
69780;BME280;57052;55.602;38.096;2023-05-25T09:58:03;100258.81;;;19.97;76.69
69780;BME280;57052;55.602;38.096;2023-05-25T10:00:30;100222.72;;;19.78;76.82
69780;BME280;57052;55.602;38.096;2023-05-25T10:02:56;100250.41;;;20.02;76.86
69780;BME280;57052;55.602;38.096;2023-05-25T10:05:21;100244.91;;;20.02;76.63
69780;BME280;57052;55.602;38.096;2023-05-25T10:07:49;100247.81;;;20.06;76.34
69780;BME280;57052;55.602;38.096;2023-05-25T10:10:15;100256.50;;;20.08;76.21
69780;BME280;57052;55.602;38.096;2023-05-25T10:12:43;100253.13;;;20.11;76.08
69780;BME280;57052;55.602;38.096;2023-05-25T10:15:12;100250.84;;;20.13;76.08
69780;BME280;57052;55.602;38.096;2023-05-25T10:17:52;100250.97;;;20.16;76.29
69780;BME280;57052;55.602;38.096;2023-05-25T10:20:19;100243.66;;;20.20;76.13
69780;BME280;57052;55.602;38.096;2023-05-25T10:23:12;100247.53;;;20.28;77.01
69780;BME280;57052;55.602;38.096;2023-05-25T10:25:44;100257.59;;;20.44;76.09
69780;BME280;57052;55.602;38.096;2023-05-25T10:28:36;100258.88;;;20.47;76.73
69780;BME280;57052;55.602;38.096;2023-05-25T10:31:02;100250.91;;;20.54;75.50
69780;BME280;57052;55.602;38.096;2023-05-25T10:33:29;100260.56;;;20.60;75.18
69780;BME280;57052;55.602;38.096;2023-05-25T10:35:56;100266.00;;;20.69;75.32
69780;BME280;57052;55.602;38.096;2023-05-25T10:38:24;100255.59;;;20.74;75.47
69780;BME280;57052;55.602;38.096;2023-05-25T10:40:52;100265.72;;;20.82;74.91
69780;BME280;57052;55.602;38.096;2023-05-25T10:43:19;100261.94;;;20.87;74.50
69780;BME280;57052;55.602;38.096;2023-05-25T10:45:46;100268.72;;;20.89;74.21
69780;BME280;57052;55.602;38.096;2023-05-25T10:48:16;100263.03;;;20.94;74.63
69780;BME280;57052;55.602;38.096;2023-05-25T10:50:49;100255.56;;;20.95;74.60
69780;BME280;57052;55.602;38.096;2023-05-25T10:53:14;100258.94;;;21.00;74.34
69780;BME280;57052;55.602;38.096;2023-05-25T10:55:42;100248.59;;;20.97;74.29
69780;BME280;57052;55.602;38.096;2023-05-25T10:58:15;100257.00;;;21.01;73.86
69780;BME280;57052;55.602;38.096;2023-05-25T11:00:41;100249.19;;;21.03;74.04
69780;BME280;57052;55.602;38.096;2023-05-25T11:03:08;100248.84;;;21.04;73.70
69780;BME280;57052;55.602;38.096;2023-05-25T11:05:38;100247.25;;;21.03;73.78
69780;BME280;57052;55.602;38.096;2023-05-25T11:08:06;100237.84;;;21.04;73.62
69780;BME280;57052;55.602;38.096;2023-05-25T11:19:01;100223.59;;;21.23;73.47
69780;BME280;57052;55.602;38.096;2023-05-25T11:26:21;100203.31;;;21.52;73.33
69780;BME280;57052;55.602;38.096;2023-05-25T11:28:47;100199.22;;;21.70;73.17
69780;BME280;57052;55.602;38.096;2023-05-25T11:31:14;100189.44;;;21.72;72.29
69780;BME280;57052;55.602;38.096;2023-05-25T11:33:43;100199.25;;;21.94;72.42
69780;BME280;57052;55.602;38.096;2023-05-25T11:36:09;100194.97;;;22.09;72.19
69780;BME280;57052;55.602;38.096;2023-05-25T11:38:40;100194.84;;;22.17;71.79
69780;BME280;57052;55.602;38.096;2023-05-25T11:41:36;100196.28;;;22.39;71.66
69780;BME280;57052;55.602;38.096;2023-05-25T11:44:03;100200.63;;;22.64;70.73
69780;BME280;57052;55.602;38.096;2023-05-25T11:46:32;100198.88;;;22.87;70.45
69780;BME280;57052;55.602;38.096;2023-05-25T11:48:59;100187.81;;;23.00;70.00
69780;BME280;57052;55.602;38.096;2023-05-25T11:51:29;100180.41;;;23.04;69.32
69780;BME280;57052;55.602;38.096;2023-05-25T11:53:55;100183.06;;;23.00;69.07
69780;BME280;57052;55.602;38.096;2023-05-25T11:56:21;100176.09;;;22.90;68.36
69780;BME280;57052;55.602;38.096;2023-05-25T11:58:49;100177.72;;;22.91;68.15
69780;BME280;57052;55.602;38.096;2023-05-25T12:03:44;100176.09;;;22.90;68.74
69780;BME280;57052;55.602;38.096;2023-05-25T12:06:42;100181.00;;;22.81;68.64
69780;BME280;57052;55.602;38.096;2023-05-25T12:09:11;100158.47;;;22.79;68.41
69780;BME280;57052;55.602;38.096;2023-05-25T12:11:37;100170.84;;;22.85;68.53
69780;BME280;57052;55.602;38.096;2023-05-25T12:14:04;100166.50;;;22.84;68.69
69780;BME280;57052;55.602;38.096;2023-05-25T12:16:32;100161.66;;;22.81;68.38
69780;BME280;57052;55.602;38.096;2023-05-25T12:18:59;100160.25;;;22.87;68.54
69780;BME280;57052;55.602;38.096;2023-05-25T12:21:26;100164.25;;;22.90;68.29
69780;BME280;57052;55.602;38.096;2023-05-25T12:23:53;100154.47;;;22.92;68.06
69780;BME280;57052;55.602;38.096;2023-05-25T12:26:19;100150.81;;;22.88;68.14
69780;BME280;57052;55.602;38.096;2023-05-25T12:29:05;100154.03;;;22.90;67.14
69780;BME280;57052;55.602;38.096;2023-05-25T12:31:32;100142.28;;;22.93;67.64
69780;BME280;57052;55.602;38.096;2023-05-25T12:36:51;100144.69;;;23.11;67.56
69780;BME280;57052;55.602;38.096;2023-05-25T12:39:32;100148.28;;;23.11;66.72
69780;BME280;57052;55.602;38.096;2023-05-25T12:42:01;100155.22;;;23.21;66.91
69780;BME280;57052;55.602;38.096;2023-05-25T12:44:34;100157.28;;;23.24;67.00
69780;BME280;57052;55.602;38.096;2023-05-25T12:52:10;100160.91;;;23.28;67.08
69780;BME280;57052;55.602;38.096;2023-05-25T12:54:43;100165.84;;;23.34;66.78
69780;BME280;57052;55.602;38.096;2023-05-25T12:57:12;100161.47;;;23.33;66.41
69780;BME280;57052;55.602;38.096;2023-05-25T12:59:40;100157.66;;;23.38;66.30
69780;BME280;57052;55.602;38.096;2023-05-25T13:02:06;100162.66;;;23.48;66.06
69780;BME280;57052;55.602;38.096;2023-05-25T13:04:33;100158.47;;;23.54;65.74
69780;BME280;57052;55.602;38.096;2023-05-25T13:06:59;100163.72;;;23.59;65.38
69780;BME280;57052;55.602;38.096;2023-05-25T13:09:26;100159.78;;;23.60;65.52